Time;durP1;ratioP1;P1;durP2;ratioP2;P2;SDS_P1;SDS_P2;PMS_P1;PMS_P2;Temp;Humidity;BMP_temperature;BMP_pressure;BME280_temperature;BME280_humidity;BME280_pressure;Samples;Min_cycle;Max_cycle;Signal;HPM_P1;HPM_P2
2021/08/01 00:00:23;;;;;;;5.15;3.80;;;15.40;90.40;;;;;;2038563;29;20080;-95
2021/08/01 00:01:24;;;;;;;5.40;4.40;;;15.40;90.40;;;;;;2046175;29;20035;-95
2021/08/01 00:02:25;;;;;;;5.60;4.30;;;15.50;90.80;;;;;;2046036;29;20140;-94
2021/08/01 00:03:25;;;;;;;6.05;4.63;;;15.40;90.50;;;;;;2045873;29;20040;-96
2021/08/01 00:04:26;;;;;;;5.43;4.13;;;15.40;90.50;;;;;;2053839;29;20126;-94
2021/08/01 00:05:27;;;;;;;5.78;4.25;;;15.40;90.50;;;;;;2053770;29;20039;-95
2021/08/01 00:06:28;;;;;;;5.93;4.60;;;15.40;90.50;;;;;;2053660;29;20043;-94
2021/08/01 00:07:28;;;;;;;5.57;4.47;;;15.40;90.50;;;;;;2056066;29;20062;-95
2021/08/01 00:08:29;;;;;;;6.03;4.40;;;15.40;90.50;;;;;;2044522;29;20472;-95
2021/08/01 00:09:30;;;;;;;6.03;4.38;;;15.40;90.50;;;;;;2043872;29;20040;-95
2021/08/01 00:10:30;;;;;;;6.30;4.43;;;15.40;90.50;;;;;;2043869;29;20043;-95
2021/08/01 00:11:31;;;;;;;6.57;4.95;;;15.40;90.50;;;;;;2035877;29;20060;-95
2021/08/01 00:12:33;;;;;;;6.13;4.50;;;15.40;90.50;;;;;;2043877;29;20137;-94
2021/08/01 00:13:33;;;;;;;6.07;4.57;;;15.40;90.50;;;;;;2043455;29;20083;-94
2021/08/01 00:14:34;;;;;;;6.32;4.70;;;15.40;90.50;;;;;;2043581;29;20123;-95
2021/08/01 00:15:35;;;;;;;5.50;4.47;;;15.40;90.50;;;;;;2054963;28;20034;-95
2021/08/01 00:16:35;;;;;;;6.78;4.35;;;15.40;90.50;;;;;;2043495;29;20490;-94
2021/08/01 00:17:36;;;;;;;5.65;4.28;;;15.40;90.50;;;;;;2043214;29;20044;-95
2021/08/01 00:18:37;;;;;;;5.80;4.60;;;15.40;90.50;;;;;;2051493;29;20043;-94
2021/08/01 00:19:37;;;;;;;6.20;4.90;;;15.40;90.50;;;;;;2043492;28;20063;-94
2021/08/01 00:20:38;;;;;;;6.32;4.65;;;15.40;90.50;;;;;;2059413;28;20039;-95
2021/08/01 00:21:39;;;;;;;8.60;5.00;;;15.40;90.50;;;;;;2051711;28;20070;-95
2021/08/01 00:22:40;;;;;;;6.15;4.68;;;15.40;90.60;;;;;;2043383;29;20039;-95
2021/08/01 00:23:40;;;;;;;5.68;4.68;;;15.40;90.60;;;;;;2036503;29;20040;-95
2021/08/01 00:24:41;;;;;;;5.63;4.63;;;15.40;90.60;;;;;;2051475;29;20227;-94
2021/08/01 00:25:42;;;;;;;6.35;4.70;;;15.40;90.60;;;;;;2051460;29;20098;-95
2021/08/01 00:26:43;;;;;;;5.80;4.30;;;15.40;90.60;;;;;;2043795;29;20729;-96
2021/08/01 00:27:43;;;;;;;6.38;4.80;;;15.40;90.60;;;;;;2051663;29;20516;-95
2021/08/01 00:28:44;;;;;;;6.25;4.97;;;15.40;90.60;;;;;;2043562;29;20135;-95
2021/08/01 00:29:45;;;;;;;6.03;4.50;;;15.40;90.60;;;;;;2051912;29;20047;-95
2021/08/01 00:30:45;;;;;;;6.45;4.80;;;15.30;90.60;;;;;;2044647;29;20071;-95
2021/08/01 00:31:46;;;;;;;5.45;4.10;;;15.40;90.60;;;;;;2037521;29;20534;-95
2021/08/01 00:32:47;;;;;;;6.10;4.88;;;15.40;90.60;;;;;;2045595;29;20039;-95
2021/08/01 00:33:49;;;;;;;6.22;4.60;;;15.30;90.60;;;;;;2052846;29;20039;-95
2021/08/01 00:34:49;;;;;;;6.32;4.60;;;15.40;90.60;;;;;;2044985;29;20036;-95
2021/08/01 00:35:53;;;;;;;6.13;4.63;;;15.30;90.60;;;;;;2044764;28;20043;-95
2021/08/01 00:36:53;;;;;;;6.05;4.72;;;15.30;90.60;;;;;;2052555;29;20034;-94
2021/08/01 00:37:54;;;;;;;6.85;4.75;;;15.30;90.60;;;;;;2051531;29;20039;-93
2021/08/01 00:38:55;;;;;;;6.40;4.60;;;15.30;90.60;;;;;;2051073;29;20417;-94
2021/08/01 00:39:56;;;;;;;5.93;4.60;;;15.30;90.70;;;;;;2051113;29;20044;-96
2021/08/01 00:40:56;;;;;;;5.55;4.65;;;15.30;90.70;;;;;;2050929;29;20488;-95
2021/08/01 00:41:57;;;;;;;6.45;4.85;;;15.30;90.70;;;;;;2051303;29;20043;-95
2021/08/01 00:42:58;;;;;;;5.78;4.25;;;15.30;90.70;;;;;;2043571;29;20069;-95
2021/08/01 00:43:58;;;;;;;6.07;4.70;;;15.30;90.70;;;;;;2051503;29;20073;-94
2021/08/01 00:44:59;;;;;;;5.93;4.82;;;15.30;90.70;;;;;;2051714;29;20047;-94
2021/08/01 00:46:00;;;;;;;7.75;5.05;;;15.30;91.00;;;;;;2051329;29;20039;-94
2021/08/01 00:47:01;;;;;;;6.28;5.30;;;15.30;90.70;;;;;;2043548;29;20043;-95
2021/08/01 00:48:02;;;;;;;7.00;5.32;;;15.30;90.70;;;;;;2052533;29;20428;-95
2021/08/01 00:49:03;;;;;;;7.45;5.65;;;15.30;90.70;;;;;;2044999;29;20036;-95
2021/08/01 00:50:07;;;;;;;9.05;6.05;;;15.30;90.70;;;;;;2044420;29;20518;-96
2021/08/01 00:51:08;;;;;;;7.35;5.68;;;15.30;90.80;;;;;;2044578;29;20060;-96
2021/08/01 00:52:10;;;;;;;8.27;5.90;;;15.30;90.80;;;;;;2044153;28;20127;-95
2021/08/01 00:53:11;;;;;;;7.10;5.50;;;15.30;90.80;;;;;;2043661;29;20168;-94
2021/08/01 00:54:12;;;;;;;8.77;6.07;;;15.30;90.80;;;;;;2036150;29;20050;-95
2021/08/01 00:55:12;;;;;;;7.68;5.90;;;15.30;90.80;;;;;;2044232;29;20044;-95
2021/08/01 00:56:15;;;;;;;8.13;6.22;;;15.30;90.80;;;;;;2035422;29;20043;-94
2021/08/01 00:57:15;;;;;;;8.07;6.03;;;15.30;90.80;;;;;;2034923;29;20537;-95
2021/08/01 00:58:16;;;;;;;8.27;6.28;;;15.30;90.80;;;;;;2070125;28;20101;-95
2021/08/01 00:59:17;;;;;;;7.40;5.80;;;15.30;90.70;;;;;;2059835;28;20449;-95
2021/08/01 01:00:38;;;;;;;7.30;6.05;;;15.30;90.70;;;;;;2044469;29;20052;-95
2021/08/01 01:01:54;;;;;;;7.28;5.13;;;15.30;90.70;;;;;;2044866;29;20035;-94
2021/08/01 01:03:00;;;;;;;7.45;5.15;;;15.30;90.70;;;;;;2047378;29;20062;-94
2021/08/01 01:04:22;;;;;;;7.88;6.10;;;15.20;90.70;;;;;;2063073;28;20516;-95
2021/08/01 01:05:30;;;;;;;6.97;5.30;;;15.20;90.70;;;;;;2065840;28;20039;-95
2021/08/01 01:06:46;;;;;;;7.32;5.13;;;15.20;90.70;;;;;;2055594;28;20046;-94
2021/08/01 01:08:02;;;;;;;7.20;5.47;;;15.20;90.70;;;;;;2064711;28;20035;-95
2021/08/01 01:09:08;;;;;;;7.30;5.20;;;15.20;90.70;;;;;;2056160;28;20047;-94
2021/08/01 01:10:16;;;;;;;6.93;5.05;;;15.20;90.70;;;;;;2057673;28;20055;-94
2021/08/01 01:11:19;;;;;;;7.38;5.70;;;15.20;90.70;;;;;;2066481;28;20026;-93
2021/08/01 01:12:27;;;;;;;7.45;5.50;;;15.10;90.70;;;;;;2071215;28;20050;-94
2021/08/01 01:13:35;;;;;;;6.88;5.47;;;15.10;90.70;;;;;;2076836;28;20042;-91
2021/08/01 01:14:42;;;;;;;6.80;5.30;;;15.20;90.80;;;;;;2074750;28;20026;-94
2021/08/01 01:15:49;;;;;;;7.10;5.43;;;15.10;90.70;;;;;;2076272;28;20014;-91
2021/08/01 01:16:55;;;;;;;7.32;5.53;;;15.10;90.70;;;;;;2073695;28;20038;-95
2021/08/01 01:17:59;;;;;;;6.78;5.05;;;15.10;90.80;;;;;;2074325;28;20421;-93
2021/08/01 01:19:00;;;;;;;6.75;5.60;;;15.10;90.80;;;;;;2065405;28;20022;-95
2021/08/01 01:20:07;;;;;;;6.72;5.35;;;15.10;90.80;;;;;;2058680;28;20016;-95
2021/08/01 01:21:28;;;;;;;6.90;5.47;;;15.10;90.80;;;;;;2056610;28;20047;-95
2021/08/01 01:22:43;;;;;;;;;;;15.10;90.80;;;;;;2052260;28;20071;-94
2021/08/01 01:23:55;;;;;;;6.00;4.43;;;15.10;90.70;;;;;;2057771;28;19989;-95
2021/08/01 01:25:00;;;;;;;5.47;4.40;;;15.10;90.70;;;;;;2055789;29;20383;-94
2021/08/01 01:26:03;;;;;;;6.03;4.93;;;15.00;90.70;;;;;;2049391;28;20059;-95
2021/08/01 01:27:20;;;;;;;7.22;5.70;;;15.00;90.70;;;;;;2048193;29;20051;-93
2021/08/01 01:28:26;;;;;;;6.80;4.90;;;15.00;90.70;;;;;;2047996;29;20070;-94
2021/08/01 01:29:37;;;;;;;7.88;5.93;;;15.00;90.80;;;;;;2049392;29;20071;-94
2021/08/01 01:30:46;;;;;;;6.78;5.22;;;15.00;90.80;;;;;;2048858;28;20036;-95
2021/08/01 01:31:47;;;;;;;7.15;5.35;;;15.00;90.70;;;;;;2050321;29;20044;-94
2021/08/01 01:33:01;;;;;;;7.20;6.00;;;15.00;90.70;;;;;;2056331;29;20054;-94
2021/08/01 01:34:13;;;;;;;7.57;5.50;;;15.00;90.80;;;;;;2050909;28;20059;-92
2021/08/01 01:35:19;;;;;;;8.80;6.10;;;14.90;90.80;;;;;;2052137;28;20145;-94
2021/08/01 01:36:30;;;;;;;7.28;5.53;;;14.90;90.80;;;;;;2051200;28;20024;-95
2021/08/01 01:37:33;;;;;;;8.43;5.97;;;15.00;90.80;;;;;;2053585;28;20023;-89
2021/08/01 01:38:35;;;;;;;8.18;5.80;;;14.90;90.80;;;;;;2052392;29;20034;-91
2021/08/01 01:39:40;;;;;;;7.30;5.72;;;14.90;90.80;;;;;;2052051;29;20043;-94
2021/08/01 01:40:41;;;;;;;7.50;5.53;;;14.90;90.80;;;;;;2058649;29;20547;-94
2021/08/01 01:41:45;;;;;;;8.13;6.43;;;14.90;90.80;;;;;;2056899;28;20032;-95
2021/08/01 01:42:50;;;;;;;8.73;6.25;;;14.80;90.80;;;;;;2063948;28;20034;-95
2021/08/01 01:43:53;;;;;;;7.57;6.03;;;14.80;90.80;;;;;;2055880;28;20023;-95
2021/08/01 01:44:56;;;;;;;7.35;5.97;;;14.80;90.80;;;;;;2063939;28;20090;-95
2021/08/01 01:45:58;;;;;;;8.10;6.53;;;14.90;90.90;;;;;;2055713;28;20042;-96
2021/08/01 01:46:59;;;;;;;9.13;6.80;;;14.80;90.80;;;;;;2047740;28;20044;-94
2021/08/01 01:48:01;;;;;;;8.40;6.05;;;14.80;90.80;;;;;;2055157;28;20031;-94
2021/08/01 01:49:06;;;;;;;8.18;6.32;;;14.80;90.90;;;;;;2071061;28;20054;-94
2021/08/01 01:50:07;;;;;;;7.57;6.30;;;14.80;90.90;;;;;;2053677;28;20051;-94
2021/08/01 01:51:10;;;;;;;7.72;6.10;;;14.80;90.90;;;;;;2054802;28;20046;-94
2021/08/01 01:52:13;;;;;;;8.10;6.18;;;14.80;90.90;;;;;;2054119;29;20043;-95
2021/08/01 01:53:15;;;;;;;7.85;6.03;;;14.80;90.90;;;;;;2047280;29;20032;-94
2021/08/01 01:54:16;;;;;;;7.78;5.95;;;14.80;90.90;;;;;;2051257;29;20031;-95
2021/08/01 01:55:19;;;;;;;7.40;6.10;;;14.80;90.90;;;;;;2059940;28;20015;-93
2021/08/01 01:56:21;;;;;;;7.47;5.80;;;14.80;91.00;;;;;;2059374;29;20042;-94
2021/08/01 01:57:21;;;;;;;7.78;5.97;;;14.80;91.00;;;;;;2057998;29;20015;-94
2021/08/01 01:58:23;;;;;;;7.55;5.90;;;14.80;91.00;;;;;;2059857;28;20086;-94
2021/08/01 01:59:24;;;;;;;6.63;5.63;;;14.80;91.20;;;;;;2059468;28;20039;-94
2021/08/01 02:00:25;;;;;;;7.72;5.97;;;14.80;91.00;;;;;;2059596;28;20051;-95
2021/08/01 02:01:25;;;;;;;7.03;5.43;;;14.80;91.00;;;;;;2063629;28;20052;-94
2021/08/01 02:02:26;;;;;;;6.70;5.43;;;14.80;91.20;;;;;;2052156;29;20027;-94
2021/08/01 02:03:27;;;;;;;8.90;5.80;;;14.80;91.00;;;;;;2052068;29;20054;-94
2021/08/01 02:04:28;;;;;;;7.00;5.68;;;14.80;91.00;;;;;;2051850;29;20032;-95
2021/08/01 02:05:29;;;;;;;7.32;5.85;;;14.80;91.00;;;;;;2051566;28;20059;-94
2021/08/01 02:06:30;;;;;;;7.97;6.20;;;14.80;91.00;;;;;;2051638;29;20115;-95
2021/08/01 02:07:32;;;;;;;7.55;5.80;;;14.80;91.00;;;;;;2043742;29;20040;-93
2021/08/01 02:08:49;;;;;;;6.95;5.35;;;14.80;91.00;;;;;;2036227;29;20045;-94
2021/08/01 02:10:07;;;;;;;8.50;5.43;;;14.80;91.00;;;;;;2045457;29;20079;-94
2021/08/01 02:11:09;;;;;;;7.30;5.43;;;14.80;91.00;;;;;;2044078;29;20032;-94
2021/08/01 02:12:16;;;;;;;6.88;5.68;;;14.80;91.00;;;;;;2057569;28;20039;-95
2021/08/01 02:13:21;;;;;;;7.70;5.80;;;14.80;91.00;;;;;;2066023;28;20131;-94
2021/08/01 02:14:40;;;;;;;7.22;5.78;;;14.80;91.00;;;;;;2059242;28;20032;-95
2021/08/01 02:15:48;;;;;;;7.38;5.63;;;14.80;91.00;;;;;;2057508;28;20047;-90
2021/08/01 02:16:53;;;;;;;8.93;6.20;;;14.80;91.00;;;;;;2053259;28;20012;-89
2021/08/01 02:18:02;;;;;;;7.95;6.38;;;14.80;91.00;;;;;;2060124;28;20043;-91
2021/08/01 02:19:07;;;;;;;8.55;6.28;;;14.80;90.90;;;;;;2059095;28;20101;-88
2021/08/01 02:20:09;;;;;;;8.18;5.88;;;14.80;90.90;;;;;;2052686;29;20063;-93
2021/08/01 02:21:11;;;;;;;7.82;5.95;;;14.80;90.90;;;;;;2059937;28;20050;-95
2021/08/01 02:22:12;;;;;;;7.85;6.07;;;14.80;91.00;;;;;;2059757;29;20043;-95
2021/08/01 02:23:22;;;;;;;9.73;6.63;;;14.80;91.00;;;;;;2052029;29;20055;-90
2021/08/01 02:24:23;;;;;;;8.40;6.20;;;14.80;91.00;;;;;;2059345;28;20054;-94
2021/08/01 02:25:27;;;;;;;7.43;6.05;;;14.80;91.00;;;;;;2059551;28;20456;-95
2021/08/01 02:26:29;;;;;;;9.20;6.20;;;14.80;91.00;;;;;;2066301;28;20027;-94
2021/08/01 02:27:33;;;;;;;7.50;6.18;;;14.80;91.00;;;;;;2051871;28;20055;-94
2021/08/01 02:28:36;;;;;;;7.80;6.28;;;14.80;91.00;;;;;;2052183;28;20032;-91
2021/08/01 02:29:38;;;;;;;7.70;6.13;;;14.80;91.00;;;;;;2044260;29;20043;-92
2021/08/01 02:30:39;;;;;;;8.30;6.20;;;14.80;91.00;;;;;;2060052;28;20012;-95
2021/08/01 02:31:40;;;;;;;8.13;6.00;;;14.80;91.00;;;;;;2065992;28;20077;-94
2021/08/01 02:32:41;;;;;;;8.50;6.25;;;14.80;91.00;;;;;;2051804;28;20073;-95
2021/08/01 02:33:42;;;;;;;8.15;6.60;;;14.80;91.00;;;;;;2051581;28;20019;-94
2021/08/01 02:34:44;;;;;;;8.57;6.57;;;14.80;91.00;;;;;;2059594;28;20047;-94
2021/08/01 02:35:47;;;;;;;9.20;7.03;;;14.80;91.00;;;;;;2057830;28;20039;-94
2021/08/01 02:36:50;;;;;;;8.38;6.32;;;14.80;91.00;;;;;;2052208;29;20024;-94
2021/08/01 02:37:55;;;;;;;9.20;6.43;;;14.70;91.00;;;;;;2052101;28;20036;-95
2021/08/01 02:38:58;;;;;;;7.43;6.20;;;14.70;91.00;;;;;;2064884;28;20476;-94
2021/08/01 02:39:59;;;;;;;7.47;6.00;;;14.80;91.00;;;;;;2061215;28;20035;-94
2021/08/01 02:41:09;;;;;;;7.45;6.25;;;14.80;91.00;;;;;;2045505;29;20516;-95
2021/08/01 02:42:11;;;;;;;7.30;5.80;;;14.80;91.00;;;;;;2048810;29;20035;-94
2021/08/01 02:43:15;;;;;;;7.80;6.10;;;14.80;91.00;;;;;;2055363;28;20058;-95
2021/08/01 02:44:22;;;;;;;8.30;6.32;;;14.80;91.00;;;;;;2060439;28;20034;-94
2021/08/01 02:45:23;;;;;;;8.10;6.15;;;14.80;91.00;;;;;;2046331;29;20034;-94
2021/08/01 02:46:28;;;;;;;7.57;6.07;;;14.80;91.00;;;;;;2053599;28;20039;-95
2021/08/01 02:47:31;;;;;;;7.40;5.97;;;14.80;91.00;;;;;;2056760;28;20028;-95
2021/08/01 02:48:33;;;;;;;9.02;6.55;;;14.80;91.00;;;;;;2050923;29;20103;-95
2021/08/01 02:49:39;;;;;;;8.30;6.65;;;14.90;91.00;;;;;;2051495;28;20050;-93
2021/08/01 02:50:42;;;;;;;7.50;6.22;;;14.90;91.00;;;;;;2050928;29;20050;-94
2021/08/01 02:51:51;;;;;;;8.82;6.53;;;14.90;91.00;;;;;;2050296;29;20055;-94
2021/08/01 02:52:59;;;;;;;7.53;6.20;;;14.90;91.00;;;;;;2051083;29;20048;-94
2021/08/01 02:54:02;;;;;;;8.40;6.25;;;15.00;91.00;;;;;;2052359;29;20048;-94
2021/08/01 02:55:05;;;;;;;8.07;6.47;;;15.00;91.00;;;;;;2058895;28;20035;-94
2021/08/01 02:56:08;;;;;;;8.98;6.45;;;15.00;90.90;;;;;;2058515;28;20140;-94
2021/08/01 02:57:12;;;;;;;8.82;6.78;;;15.00;90.90;;;;;;2051280;29;20047;-93
2021/08/01 02:58:13;;;;;;;9.48;6.35;;;15.00;90.90;;;;;;2059885;28;20063;-93
2021/08/01 02:59:16;;;;;;;8.35;6.82;;;15.00;90.90;;;;;;2051439;28;20064;-93
2021/08/01 03:00:19;;;;;;;8.07;6.65;;;15.00;90.90;;;;;;2044784;28;20097;-93
2021/08/01 03:01:19;;;;;;;8.20;6.78;;;15.00;90.90;;;;;;2066901;28;20058;-94
2021/08/01 03:02:20;;;;;;;7.90;6.47;;;15.00;90.90;;;;;;2058083;29;20047;-95
2021/08/01 03:03:22;;;;;;;8.30;6.38;;;15.10;90.90;;;;;;2058422;28;20024;-94
2021/08/01 03:04:24;;;;;;;8.65;6.50;;;15.10;90.90;;;;;;2059062;28;20516;-94
2021/08/01 03:05:25;;;;;;;9.07;7.30;;;15.10;90.90;;;;;;2059300;28;20063;-94
2021/08/01 03:06:32;;;;;;;8.75;6.50;;;15.10;90.90;;;;;;2051635;28;20071;-92
2021/08/01 03:07:33;;;;;;;7.90;6.65;;;15.10;90.90;;;;;;2059773;28;20058;-93
2021/08/01 03:08:34;;;;;;;7.95;6.80;;;15.10;90.90;;;;;;2059815;28;20030;-95
2021/08/01 03:09:35;;;;;;;7.25;6.28;;;15.10;90.90;;;;;;2059538;28;20050;-95
2021/08/01 03:10:36;;;;;;;7.97;6.32;;;15.10;90.90;;;;;;2051809;29;20039;-95
2021/08/01 03:11:37;;;;;;;8.65;6.63;;;15.10;90.90;;;;;;2059928;28;20297;-94
2021/08/01 03:12:42;;;;;;;9.48;6.90;;;15.10;90.90;;;;;;2051550;29;20020;-93
2021/08/01 03:13:43;;;;;;;7.70;6.22;;;15.10;90.90;;;;;;2052244;28;20056;-95
2021/08/01 03:14:44;;;;;;;7.70;6.07;;;15.10;90.90;;;;;;2051410;28;20036;-95
2021/08/01 03:15:44;;;;;;;7.60;6.57;;;15.10;90.90;;;;;;2030505;29;20043;-96
2021/08/01 03:16:45;;;;;;;8.30;7.25;;;15.10;91.00;;;;;;2051836;28;20098;-96
2021/08/01 03:17:46;;;;;;;8.60;6.90;;;15.10;91.00;;;;;;2044933;29;20048;-95
2021/08/01 03:18:46;;;;;;;7.85;6.60;;;15.20;91.00;;;;;;2044595;29;20589;-96
2021/08/01 03:19:47;;;;;;;7.95;6.32;;;15.10;91.00;;;;;;2053263;28;20106;-96
2021/08/01 03:20:48;;;;;;;8.32;6.95;;;15.20;91.00;;;;;;2036917;29;20032;-95
2021/08/01 03:21:49;;;;;;;11.30;7.40;;;15.20;91.00;;;;;;2041854;29;20124;-95
2021/08/01 03:22:49;;;;;;;7.75;6.72;;;15.10;91.00;;;;;;2048967;29;20043;-96
2021/08/01 03:23:51;;;;;;;8.80;6.60;;;15.20;91.00;;;;;;2052352;28;20488;-95
2021/08/01 03:24:51;;;;;;;7.85;6.55;;;15.20;91.00;;;;;;2060714;28;20154;-96
2021/08/01 03:25:52;;;;;;;8.30;7.05;;;15.20;91.00;;;;;;2053020;29;20035;-95
2021/08/01 03:26:53;;;;;;;8.23;7.05;;;15.20;91.00;;;;;;2052784;28;20036;-94
2021/08/01 03:27:54;;;;;;;9.02;7.30;;;15.20;91.00;;;;;;2054142;28;20062;-95
2021/08/01 03:28:55;;;;;;;8.50;7.05;;;15.20;91.00;;;;;;2045316;29;20042;-95
2021/08/01 03:29:56;;;;;;;8.88;7.00;;;15.20;91.00;;;;;;2053429;29;20050;-95
2021/08/01 03:30:56;;;;;;;8.13;7.20;;;15.20;91.00;;;;;;2053626;28;20043;-96
2021/08/01 03:31:57;;;;;;;8.20;6.95;;;15.20;91.00;;;;;;2053957;28;20050;-96
2021/08/01 03:32:58;;;;;;;7.78;6.90;;;15.20;91.00;;;;;;2045387;29;20426;-93
2021/08/01 03:33:59;;;;;;;8.70;7.05;;;15.20;91.00;;;;;;2051478;28;20067;-96
2021/08/01 03:35:00;;;;;;;8.77;6.88;;;15.30;91.10;;;;;;2052146;28;20051;-94
2021/08/01 03:36:00;;;;;;;7.70;6.78;;;15.30;91.10;;;;;;2043279;29;20071;-93
2021/08/01 03:37:01;;;;;;;8.07;7.22;;;15.30;91.10;;;;;;2035855;29;20104;-94
2021/08/01 03:38:01;;;;;;;8.25;7.20;;;15.30;91.10;;;;;;2035905;29;20028;-93
2021/08/01 03:39:04;;;;;;;8.70;7.40;;;15.30;91.10;;;;;;2043987;29;20036;-93
2021/08/01 03:40:05;;;;;;;8.45;7.53;;;15.30;91.10;;;;;;2050552;28;20049;-94
2021/08/01 03:41:06;;;;;;;8.93;7.20;;;15.30;91.10;;;;;;2067573;28;20041;-94
2021/08/01 03:42:06;;;;;;;7.95;6.93;;;15.30;91.10;;;;;;2051760;29;20063;-95
2021/08/01 03:43:08;;;;;;;9.48;7.65;;;15.30;91.10;;;;;;2044400;29;20446;-94
2021/08/01 03:44:09;;;;;;;9.30;7.80;;;15.30;91.10;;;;;;2052362;28;20059;-94
2021/08/01 03:45:11;;;;;;;9.30;7.63;;;15.30;91.10;;;;;;2044370;29;20047;-95
2021/08/01 03:46:12;;;;;;;8.68;7.47;;;15.30;91.10;;;;;;2043964;29;20072;-95
2021/08/01 03:47:14;;;;;;;8.13;7.30;;;15.30;91.20;;;;;;2051952;29;20032;-94
2021/08/01 03:48:14;;;;;;;8.57;7.40;;;15.30;91.20;;;;;;2043219;29;20044;-94
2021/08/01 03:49:15;;;;;;;9.55;7.43;;;15.30;91.20;;;;;;2035967;29;20036;-94
2021/08/01 03:50:15;;;;;;;9.23;7.22;;;15.30;91.20;;;;;;2069994;28;20054;-94
2021/08/01 03:51:16;;;;;;;9.38;7.57;;;15.30;91.20;;;;;;2053245;29;20035;-95
2021/08/01 03:52:17;;;;;;;8.20;7.00;;;15.30;91.20;;;;;;2045315;29;20038;-94
2021/08/01 03:53:18;;;;;;;8.88;7.40;;;15.30;91.20;;;;;;2052084;28;20031;-94
2021/08/01 03:54:18;;;;;;;9.98;7.60;;;15.30;91.20;;;;;;2044134;29;20036;-95
2021/08/01 03:55:19;;;;;;;10.32;7.75;;;15.30;91.20;;;;;;2049977;29;20040;-94
2021/08/01 03:56:20;;;;;;;9.02;7.45;;;15.30;91.20;;;;;;2057532;28;20043;-94
2021/08/01 03:57:20;;;;;;;9.07;7.70;;;15.30;91.20;;;;;;2050274;28;20031;-94
2021/08/01 03:58:21;;;;;;;9.20;7.47;;;15.30;91.20;;;;;;2058622;28;20087;-94
2021/08/01 03:59:22;;;;;;;9.00;7.35;;;15.30;91.20;;;;;;2049907;29;20043;-93
2021/08/01 04:00:22;;;;;;;9.85;7.88;;;15.30;91.20;;;;;;2057738;29;20036;-95
2021/08/01 04:01:25;;;;;;;9.68;7.88;;;15.30;91.20;;;;;;2052304;29;20051;-94
2021/08/01 04:02:26;;;;;;;9.02;7.20;;;15.30;91.20;;;;;;2059883;28;20046;-95
2021/08/01 04:03:26;;;;;;;8.75;7.15;;;15.30;91.20;;;;;;2043902;29;20538;-95
2021/08/01 04:04:27;;;;;;;8.10;6.95;;;15.30;91.20;;;;;;2044174;29;20035;-94
2021/08/01 04:05:28;;;;;;;8.85;7.38;;;15.30;91.20;;;;;;2052130;29;20039;-95
2021/08/01 04:06:29;;;;;;;9.23;7.35;;;15.40;91.30;;;;;;2060460;28;20050;-94
2021/08/01 04:07:30;;;;;;;8.68;7.38;;;15.30;91.20;;;;;;2052187;28;20041;-95
2021/08/01 04:08:30;;;;;;;9.75;6.90;;;15.30;91.20;;;;;;2044366;29;20058;-93
2021/08/01 04:09:31;;;;;;;7.82;7.03;;;15.30;91.20;;;;;;2060256;28;20046;-95
2021/08/01 04:10:32;;;;;;;9.05;7.20;;;15.30;91.20;;;;;;2052586;29;20077;-94
2021/08/01 04:11:37;;;;;;;8.07;7.00;;;15.40;91.30;;;;;;2052263;29;20129;-94
2021/08/01 04:12:38;;;;;;;9.48;7.35;;;15.40;91.30;;;;;;2059916;28;20567;-94
2021/08/01 04:13:39;;;;;;;8.88;7.32;;;15.40;91.30;;;;;;2043991;29;20036;-94
2021/08/01 04:14:39;;;;;;;8.07;7.03;;;15.40;91.50;;;;;;2051591;28;20043;-93
2021/08/01 04:15:46;;;;;;;9.43;7.00;;;15.40;91.20;;;;;;2051725;28;20078;-94
2021/08/01 04:16:47;;;;;;;9.18;7.10;;;15.40;91.20;;;;;;2050969;28;20104;-93
2021/08/01 04:17:47;;;;;;;8.35;6.70;;;15.40;91.20;;;;;;2051424;29;20074;-95
2021/08/01 04:18:48;;;;;;;9.40;7.65;;;15.40;91.20;;;;;;2052044;29;20055;-95
2021/08/01 04:19:49;;;;;;;7.60;6.78;;;15.40;91.20;;;;;;2059311;28;20133;-94
2021/08/01 04:20:49;;;;;;;8.05;6.65;;;15.40;91.20;;;;;;2051481;29;20046;-93
2021/08/01 04:21:50;;;;;;;9.10;7.38;;;15.40;91.20;;;;;;2043107;29;20031;-94
2021/08/01 04:22:52;;;;;;;8.50;7.03;;;15.40;91.30;;;;;;2037069;29;20413;-94
2021/08/01 04:23:53;;;;;;;9.18;7.13;;;15.40;91.20;;;;;;2047552;28;20481;-95
2021/08/01 04:24:54;;;;;;;8.93;7.53;;;15.40;91.20;;;;;;2052215;29;20094;-95
2021/08/01 04:25:54;;;;;;;8.57;7.20;;;15.50;91.20;;;;;;2044131;29;20107;-95
2021/08/01 04:26:56;;;;;;;8.43;6.90;;;15.50;91.20;;;;;;2044070;29;20064;-94
2021/08/01 04:27:56;;;;;;;8.15;6.70;;;15.50;91.20;;;;;;2051738;28;20035;-93
2021/08/01 04:28:58;;;;;;;8.38;6.78;;;15.50;91.30;;;;;;2043221;29;20042;-95
2021/08/01 04:29:58;;;;;;;8.13;7.00;;;15.50;91.30;;;;;;2044013;29;20528;-94
2021/08/01 04:30:59;;;;;;;8.95;7.40;;;15.50;91.30;;;;;;2051451;28;20031;-94
2021/08/01 04:32:00;;;;;;;8.10;7.07;;;15.50;91.20;;;;;;2048577;28;20044;-94
2021/08/01 04:33:01;;;;;;;8.55;6.65;;;15.50;91.30;;;;;;2057530;29;20039;-94
2021/08/01 04:34:02;;;;;;;8.32;7.03;;;15.50;91.30;;;;;;2057792;29;20035;-95
2021/08/01 04:35:04;;;;;;;9.27;7.15;;;15.50;91.20;;;;;;2065004;28;20050;-94
2021/08/01 04:36:04;;;;;;;8.93;7.15;;;15.50;91.20;;;;;;2057704;28;20063;-95
2021/08/01 04:37:05;;;;;;;8.77;7.13;;;15.50;91.20;;;;;;2057588;28;20085;-94
2021/08/01 04:38:06;;;;;;;7.88;6.57;;;15.50;91.20;;;;;;2064946;28;20043;-94
2021/08/01 04:39:06;;;;;;;8.27;6.50;;;15.50;91.20;;;;;;2061075;28;20033;-94
2021/08/01 04:40:08;;;;;;;8.27;6.82;;;15.60;91.30;;;;;;2052598;28;20130;-94
2021/08/01 04:41:08;;;;;;;9.35;6.68;;;15.50;91.20;;;;;;2061068;28;20581;-94
2021/08/01 04:42:09;;;;;;;7.72;6.45;;;15.50;91.20;;;;;;2060394;28;20035;-95
2021/08/01 04:43:10;;;;;;;8.88;6.60;;;15.50;91.20;;;;;;2053671;29;20059;-95
2021/08/01 04:44:10;;;;;;;8.85;6.80;;;15.60;91.20;;;;;;2044909;29;20035;-94
2021/08/01 04:45:11;;;;;;;8.50;6.57;;;15.60;91.20;;;;;;2045121;29;20488;-95
2021/08/01 04:46:12;;;;;;;7.97;6.60;;;15.60;91.20;;;;;;2069941;28;20034;-94
2021/08/01 04:47:15;;;;;;;8.07;6.47;;;15.60;91.20;;;;;;2046331;29;20032;-95
2021/08/01 04:48:16;;;;;;;9.05;6.63;;;15.60;91.20;;;;;;2041190;29;20063;-94
2021/08/01 04:49:17;;;;;;;7.63;6.75;;;15.60;91.20;;;;;;2056695;29;20501;-95
2021/08/01 04:50:17;;;;;;;8.68;6.75;;;15.60;91.20;;;;;;2057667;29;20035;-95
2021/08/01 04:51:18;;;;;;;7.90;6.70;;;15.60;91.20;;;;;;2045851;29;20032;-94
2021/08/01 04:52:19;;;;;;;8.63;6.63;;;15.60;91.20;;;;;;2046299;29;20131;-95
2021/08/01 04:53:20;;;;;;;7.90;6.72;;;15.60;91.20;;;;;;2059032;28;20095;-95
2021/08/01 04:54:20;;;;;;;8.02;6.63;;;15.60;91.20;;;;;;2044399;29;20035;-94
2021/08/01 04:55:22;;;;;;;7.68;6.18;;;15.60;91.20;;;;;;2045050;29;20032;-94
2021/08/01 04:56:22;;;;;;;7.60;6.20;;;15.60;91.20;;;;;;2044636;29;20403;-95
2021/08/01 04:57:23;;;;;;;9.10;6.80;;;15.70;91.20;;;;;;2042482;28;20068;-94
2021/08/01 04:58:24;;;;;;;8.10;6.68;;;15.70;91.20;;;;;;2052712;28;20070;-94
2021/08/01 04:59:24;;;;;;;10.23;6.60;;;15.70;91.20;;;;;;2045601;29;20120;-95
2021/08/01 05:00:25;;;;;;;8.95;6.63;;;15.70;91.20;;;;;;2054025;29;20042;-94
2021/08/01 05:01:26;;;;;;;9.68;6.22;;;15.70;91.20;;;;;;2054609;28;20032;-93
2021/08/01 05:02:27;;;;;;;7.85;6.05;;;15.70;91.20;;;;;;2055057;28;20036;-94
2021/08/01 05:03:27;;;;;;;8.70;6.32;;;15.70;91.20;;;;;;2046093;29;20100;-94
2021/08/01 05:04:29;;;;;;;8.88;6.05;;;15.70;91.10;;;;;;2046556;29;20107;-95
2021/08/01 05:05:37;;;;;;;8.07;6.68;;;15.70;91.10;;;;;;2047002;29;20032;-94
2021/08/01 05:06:38;;;;;;;9.57;7.22;;;15.70;91.20;;;;;;2048214;29;20032;-93
2021/08/01 05:07:38;;;;;;;8.10;6.53;;;15.70;91.10;;;;;;2048108;29;20044;-95
2021/08/01 05:08:39;;;;;;;7.55;6.10;;;15.70;91.10;;;;;;2064456;28;20046;-94
2021/08/01 05:09:40;;;;;;;8.32;6.68;;;15.70;91.10;;;;;;2064123;28;20043;-94
2021/08/01 05:10:41;;;;;;;9.80;6.75;;;15.80;91.10;;;;;;2055891;28;20039;-94
2021/08/01 05:11:41;;;;;;;7.68;6.28;;;15.70;91.10;;;;;;2049611;29;20050;-94
2021/08/01 05:12:42;;;;;;;8.68;6.40;;;15.70;91.10;;;;;;2049631;29;20051;-94
2021/08/01 05:13:43;;;;;;;8.30;6.30;;;15.80;91.20;;;;;;2055170;29;20039;-94
2021/08/01 05:14:46;;;;;;;8.43;6.30;;;15.80;91.10;;;;;;2064573;28;20043;-94
2021/08/01 05:15:47;;;;;;;7.85;6.60;;;15.80;91.10;;;;;;2047738;29;20024;-94
2021/08/01 05:16:48;;;;;;;8.40;6.72;;;15.70;91.10;;;;;;2047163;29;20036;-94
2021/08/01 05:17:49;;;;;;;10.02;6.70;;;15.80;91.10;;;;;;2054845;29;20035;-95
2021/08/01 05:18:50;;;;;;;10.65;6.85;;;15.80;91.10;;;;;;2062487;28;20042;-94
2021/08/01 05:19:50;;;;;;;9.68;6.43;;;15.80;91.10;;;;;;2054295;29;20059;-94
2021/08/01 05:20:51;;;;;;;9.25;6.70;;;15.80;91.10;;;;;;2047001;29;20040;-94
2021/08/01 05:21:52;;;;;;;8.88;6.93;;;15.80;91.10;;;;;;2054848;28;20035;-94
2021/08/01 05:22:52;;;;;;;9.57;7.40;;;15.80;91.10;;;;;;2039224;29;20052;-94
2021/08/01 05:23:53;;;;;;;8.75;6.53;;;15.80;91.10;;;;;;2062938;28;20051;-94
2021/08/01 05:24:54;;;;;;;10.38;7.18;;;15.80;91.10;;;;;;2047148;29;20084;-95
2021/08/01 05:25:57;;;;;;;9.20;6.90;;;15.80;91.00;;;;;;2039103;29;20028;-94